Time;durP1;ratioP1;P1;durP2;ratioP2;P2;SDS_P1;SDS_P2;PMS_P1;PMS_P2;Temp;Humidity;BMP_temperature;BMP_pressure;BME280_temperature;BME280_humidity;BME280_pressure;Samples;Min_cycle;Max_cycle;Signal;HPM_P1;HPM_P2
2023/12/02 00:01:38;;;;;;;44.72;22.67;;;-1.00;99.90;;;;;;5001139;28;20398;-53
2023/12/02 00:04:04;;;;;;;40.22;20.63;;;-1.10;99.90;;;;;;4994683;28;20046;-54
2023/12/02 00:06:30;;;;;;;45.33;22.42;;;-1.00;99.90;;;;;;4995209;28;20050;-51
2023/12/02 00:08:56;;;;;;;45.50;23.42;;;-1.00;99.90;;;;;;4996277;28;20128;-51
2023/12/02 00:11:21;;;;;;;45.05;22.58;;;-1.00;99.90;;;;;;4994750;28;20459;-56
2023/12/02 00:13:47;;;;;;;42.10;22.17;;;-1.00;99.90;;;;;;4981246;28;20510;-50
2023/12/02 00:16:13;;;;;;;43.58;22.95;;;-0.90;99.90;;;;;;4990157;28;20054;-49
2023/12/02 00:18:39;;;;;;;44.80;22.83;;;-0.90;99.90;;;;;;4992027;28;20078;-54
2023/12/02 00:21:05;;;;;;;44.58;22.52;;;-0.90;99.90;;;;;;4989795;28;20165;-50
2023/12/02 00:23:31;;;;;;;44.38;23.38;;;-0.90;99.90;;;;;;4996597;28;20046;-53
2023/12/02 00:25:58;;;;;;;44.72;22.77;;;-0.90;99.90;;;;;;4972872;28;20477;-52
2023/12/02 00:28:24;;;;;;;42.13;22.08;;;-0.90;99.90;;;;;;4993203;28;20526;-51
2023/12/02 00:30:50;;;;;;;43.83;22.17;;;-0.90;99.90;;;;;;4991247;28;20038;-50
2023/12/02 00:33:15;;;;;;;45.08;22.58;;;-0.90;99.90;;;;;;4977111;28;20509;-54
2023/12/02 00:35:41;;;;;;;44.72;22.13;;;-0.90;99.90;;;;;;4993251;28;20073;-51
2023/12/02 00:38:07;;;;;;;45.08;21.98;;;-0.90;99.90;;;;;;4991458;28;20057;-52
2023/12/02 00:40:32;;;;;;;42.53;22.38;;;-0.90;99.90;;;;;;4970069;28;20058;-51
2023/12/02 00:42:58;;;;;;;46.03;22.85;;;-0.90;99.90;;;;;;4989917;28;20517;-50
2023/12/02 00:45:24;;;;;;;41.83;23.45;;;-0.90;99.90;;;;;;4993773;28;20042;-53
2023/12/02 00:47:49;;;;;;;44.05;22.95;;;-0.90;99.90;;;;;;4991819;28;20382;-52
2023/12/02 00:50:16;;;;;;;42.97;22.20;;;-0.90;99.90;;;;;;4975603;28;20467;-50
2023/12/02 00:52:42;;;;;;;43.00;22.02;;;-0.90;99.90;;;;;;4993966;28;20049;-53
2023/12/02 00:55:08;;;;;;;48.10;23.15;;;-0.90;99.90;;;;;;4989988;28;20046;-52
2023/12/02 00:57:34;;;;;;;42.75;22.55;;;-0.90;99.90;;;;;;4991464;28;20450;-50
2023/12/02 01:00:00;;;;;;;45.20;23.67;;;-0.80;99.90;;;;;;4989910;28;20402;-54
2023/12/02 01:02:26;;;;;;;42.63;21.85;;;-0.90;99.90;;;;;;4989233;28;20069;-50
2023/12/02 01:04:51;;;;;;;43.85;22.45;;;-0.80;99.90;;;;;;4993001;28;20109;-51
2023/12/02 01:07:17;;;;;;;44.58;22.85;;;-0.80;99.90;;;;;;4988938;28;20037;-50
2023/12/02 01:09:43;;;;;;;43.17;21.42;;;-0.80;99.90;;;;;;4991622;28;20053;-50
2023/12/02 01:12:09;;;;;;;40.90;22.10;;;-0.80;99.90;;;;;;4991217;28;20050;-49
2023/12/02 01:14:34;;;;;;;43.55;21.70;;;-0.90;99.90;;;;;;4987991;28;20346;-49
2023/12/02 01:17:00;;;;;;;43.13;21.55;;;-0.80;99.90;;;;;;4986302;28;20081;-55
2023/12/02 01:19:26;;;;;;;43.00;23.08;;;-0.80;99.90;;;;;;4992567;28;20042;-55
2023/12/02 01:21:51;;;;;;;41.70;21.60;;;-0.80;99.90;;;;;;4986456;28;20132;-52
2023/12/02 01:24:17;;;;;;;44.55;22.77;;;-0.80;99.90;;;;;;4986284;28;20052;-50
2023/12/02 01:26:43;;;;;;;43.13;22.73;;;-0.80;99.90;;;;;;4988884;28;20478;-54
2023/12/02 01:29:09;;;;;;;44.60;23.45;;;-0.80;99.90;;;;;;4986989;28;20049;-50
2023/12/02 01:31:35;;;;;;;44.67;22.38;;;-0.80;99.90;;;;;;4991403;28;20123;-52
2023/12/02 01:34:00;;;;;;;40.25;21.85;;;-0.80;99.90;;;;;;4991553;28;20078;-51
2023/12/02 01:36:26;;;;;;;41.10;21.23;;;-0.90;99.90;;;;;;4959504;28;20487;-52
2023/12/02 01:38:52;;;;;;;46.17;22.27;;;-0.80;99.90;;;;;;4985059;28;20041;-52
2023/12/02 01:41:18;;;;;;;39.45;21.45;;;-0.80;99.90;;;;;;4993428;28;20049;-50
2023/12/02 01:43:44;;;;;;;45.70;23.23;;;-0.90;99.90;;;;;;4995427;28;20052;-51
2023/12/02 01:46:13;;;;;;;46.97;23.90;;;-0.90;99.90;;;;;;4993812;28;20104;-49
2023/12/02 01:48:39;;;;;;;47.03;23.17;;;-0.80;99.90;;;;;;4989596;28;20042;-50
2023/12/02 01:51:05;;;;;;;46.05;23.40;;;-0.90;99.90;;;;;;4987934;28;20046;-51
2023/12/02 01:53:31;;;;;;;44.78;23.25;;;-0.90;99.90;;;;;;4978244;28;20071;-50
2023/12/02 01:55:57;;;;;;;44.85;22.60;;;-0.90;99.90;;;;;;4995548;28;20128;-49
2023/12/02 01:58:22;;;;;;;45.55;22.33;;;-0.90;99.90;;;;;;4990026;28;20107;-52
2023/12/02 02:00:48;;;;;;;47.83;22.80;;;-0.90;99.90;;;;;;4987806;28;20050;-51
2023/12/02 02:03:14;;;;;;;48.88;23.83;;;-0.90;99.90;;;;;;4994273;28;20049;-54
2023/12/02 02:05:39;;;;;;;44.20;23.20;;;-0.90;99.90;;;;;;4991612;28;20038;-53
2023/12/02 02:08:05;;;;;;;44.58;22.15;;;-0.90;99.90;;;;;;4993738;28;20060;-50
2023/12/02 02:10:31;;;;;;;44.67;22.60;;;-0.90;99.90;;;;;;4988560;28;20038;-54
2023/12/02 02:12:57;;;;;;;44.97;23.40;;;-0.90;99.90;;;;;;4983637;28;20053;-52
2023/12/02 02:15:23;;;;;;;45.38;22.65;;;-0.90;99.90;;;;;;4969815;28;21284;-49
2023/12/02 02:17:48;;;;;;;43.85;22.58;;;-1.00;99.90;;;;;;4988370;28;20060;-50
2023/12/02 02:20:14;;;;;;;45.50;22.60;;;-1.00;99.90;;;;;;4985698;28;20050;-51
2023/12/02 02:22:40;;;;;;;43.40;22.35;;;-1.00;99.90;;;;;;4977033;28;20050;-52
2023/12/02 02:25:06;;;;;;;41.90;22.00;;;-1.00;99.90;;;;;;4979862;28;20050;-52
2023/12/02 02:27:31;;;;;;;41.58;21.88;;;-1.00;99.90;;;;;;4980382;28;20096;-52
2023/12/02 02:29:58;;;;;;;42.45;21.80;;;-1.00;99.90;;;;;;4982541;28;20049;-51
2023/12/02 02:32:23;;;;;;;43.85;22.63;;;-1.00;99.90;;;;;;4963445;28;20743;-51
2023/12/02 02:34:49;;;;;;;42.78;21.40;;;-1.00;99.90;;;;;;4982248;28;20140;-51
2023/12/02 02:37:15;;;;;;;43.72;22.00;;;-1.00;99.90;;;;;;4978332;28;20104;-52
2023/12/02 02:39:40;;;;;;;42.65;21.63;;;-1.00;99.90;;;;;;4981721;28;20115;-51
2023/12/02 02:42:06;;;;;;;42.45;21.27;;;-1.00;99.90;;;;;;4960870;28;20052;-53
2023/12/02 02:44:33;;;;;;;47.05;20.95;;;-1.10;99.90;;;;;;4983441;28;20402;-51
2023/12/02 02:46:59;;;;;;;43.92;21.92;;;-1.10;99.90;;;;;;4981795;28;20108;-50
2023/12/02 02:49:24;;;;;;;41.05;22.63;;;-1.10;99.90;;;;;;4979633;28;20722;-50
2023/12/02 02:51:50;;;;;;;45.22;21.65;;;-1.10;99.90;;;;;;4975942;28;20117;-51
2023/12/02 02:54:16;;;;;;;45.70;23.90;;;-1.10;99.90;;;;;;4983290;28;20057;-52
2023/12/02 02:56:43;;;;;;;43.58;22.95;;;-1.10;99.90;;;;;;4984175;28;20441;-51
2023/12/02 02:59:09;;;;;;;40.13;21.42;;;-1.10;99.90;;;;;;4983836;28;20038;-50
2023/12/02 03:01:34;;;;;;;45.75;23.15;;;-1.10;99.90;;;;;;4981985;28;20049;-50
2023/12/02 03:04:00;;;;;;;39.78;20.60;;;-1.10;99.90;;;;;;4978633;28;20068;-52
2023/12/02 03:06:26;;;;;;;38.55;21.10;;;-1.10;99.90;;;;;;4967561;28;20042;-52
2023/12/02 03:08:51;;;;;;;44.00;21.50;;;-1.20;99.90;;;;;;4983139;28;20482;-49
2023/12/02 03:11:17;;;;;;;43.35;21.45;;;-1.20;99.90;;;;;;4987350;28;20038;-52
2023/12/02 03:13:43;;;;;;;38.75;20.20;;;-1.20;99.90;;;;;;4988917;28;20498;-50
2023/12/02 03:16:09;;;;;;;42.25;22.10;;;-1.10;99.90;;;;;;4987208;28;20069;-54
2023/12/02 03:18:35;;;;;;;39.17;21.08;;;-1.20;99.90;;;;;;4989135;28;20060;-53
2023/12/02 03:21:00;;;;;;;42.28;21.08;;;-1.10;99.90;;;;;;4988471;28;20157;-54
2023/12/02 03:23:26;;;;;;;43.65;21.63;;;-1.20;99.90;;;;;;4973235;28;20038;-52
2023/12/02 03:25:52;;;;;;;44.00;22.52;;;-1.20;99.90;;;;;;4988982;28;20050;-53
2023/12/02 03:28:19;;;;;;;41.70;20.83;;;-1.20;99.90;;;;;;4976320;28;20054;-51
2023/12/02 03:30:45;;;;;;;41.83;22.05;;;-1.20;99.90;;;;;;4990478;28;20052;-55
2023/12/02 03:33:11;;;;;;;39.47;20.85;;;-1.30;99.90;;;;;;4987652;28;20045;-52
2023/12/02 03:35:36;;;;;;;42.20;21.75;;;-1.20;99.90;;;;;;4956828;28;20391;-52
2023/12/02 03:38:02;;;;;;;40.33;20.75;;;-1.20;99.90;;;;;;4990213;28;20049;-52
2023/12/02 03:40:28;;;;;;;43.55;22.10;;;-1.20;99.90;;;;;;4973471;28;20501;-49
2023/12/02 03:42:53;;;;;;;43.50;21.23;;;-1.20;99.90;;;;;;4987566;28;20046;-52
2023/12/02 03:45:19;;;;;;;44.70;22.35;;;-1.20;99.90;;;;;;4988760;28;20034;-53
2023/12/02 03:47:45;;;;;;;45.50;22.90;;;-1.20;99.90;;;;;;4984908;28;20057;-52
2023/12/02 03:50:11;;;;;;;44.17;22.23;;;-1.20;99.90;;;;;;4972083;28;20065;-52
2023/12/02 03:52:36;;;;;;;45.50;23.63;;;-1.20;99.90;;;;;;4986554;28;20121;-50
2023/12/02 03:55:02;;;;;;;43.42;21.50;;;-1.20;99.90;;;;;;4986329;28;20061;-52
2023/12/02 03:57:28;;;;;;;45.70;22.67;;;-1.20;99.90;;;;;;4985608;28;20057;-54
2023/12/02 03:59:54;;;;;;;45.72;22.45;;;-1.20;99.90;;;;;;4986158;28;20535;-53
2023/12/02 04:02:19;;;;;;;44.60;23.02;;;-1.20;99.90;;;;;;4986255;28;20525;-53
2023/12/02 04:04:45;;;;;;;47.65;23.13;;;-1.20;99.90;;;;;;4988143;28;20042;-53
2023/12/02 04:07:11;;;;;;;43.40;22.10;;;-1.30;99.90;;;;;;4964204;28;20041;-52
2023/12/02 04:09:36;;;;;;;43.58;21.85;;;-1.20;99.90;;;;;;4984987;28;20498;-52
2023/12/02 04:12:03;;;;;;;41.58;21.58;;;-1.20;99.90;;;;;;4985305;28;20100;-50
2023/12/02 04:14:28;;;;;;;42.42;22.20;;;-1.30;99.90;;;;;;4986265;28;20528;-54
2023/12/02 04:16:54;;;;;;;46.63;22.33;;;-1.20;99.90;;;;;;4983926;28;20607;-52
2023/12/02 04:19:21;;;;;;;43.85;21.70;;;-1.30;99.90;;;;;;4987292;28;20588;-51
2023/12/02 04:21:46;;;;;;;41.38;21.13;;;-1.30;99.90;;;;;;4983307;28;20182;-52
2023/12/02 04:24:12;;;;;;;40.67;21.08;;;-1.30;99.90;;;;;;4983436;28;20552;-49
2023/12/02 04:26:38;;;;;;;44.38;21.55;;;-1.30;99.90;;;;;;4986501;28;20077;-51
2023/12/02 04:29:03;;;;;;;41.33;21.13;;;-1.30;99.90;;;;;;4982106;28;20655;-50
2023/12/02 04:31:30;;;;;;;42.95;21.98;;;-1.30;99.90;;;;;;4981898;28;20042;-51
2023/12/02 04:33:56;;;;;;;42.45;21.52;;;-1.30;99.90;;;;;;4989076;28;20048;-52
2023/12/02 04:36:22;;;;;;;41.90;21.25;;;-1.30;99.90;;;;;;4990267;28;20486;-51
2023/12/02 04:38:47;;;;;;;41.95;21.25;;;-1.30;99.90;;;;;;4973623;28;20033;-50
2023/12/02 04:41:13;;;;;;;45.40;21.92;;;-1.30;99.90;;;;;;4990169;28;20662;-53
2023/12/02 04:43:39;;;;;;;39.88;20.88;;;-1.30;99.90;;;;;;4982215;28;20038;-50
2023/12/02 04:46:06;;;;;;;40.65;21.17;;;-1.30;99.90;;;;;;5002352;28;20132;-52
2023/12/02 04:48:33;;;;;;;40.55;21.27;;;-1.30;99.90;;;;;;4994075;28;20140;-52
2023/12/02 04:50:59;;;;;;;43.10;20.90;;;-1.30;99.90;;;;;;4975045;28;20073;-53
2023/12/02 04:53:25;;;;;;;43.92;21.48;;;-1.30;99.90;;;;;;4975697;28;20128;-53
2023/12/02 04:55:52;;;;;;;41.65;21.33;;;-1.30;99.90;;;;;;4991856;28;20052;-50
2023/12/02 04:58:19;;;;;;;36.05;20.50;;;-1.40;99.90;;;;;;4991458;28;20053;-51
2023/12/02 05:00:45;;;;;;;39.53;20.98;;;-1.30;99.90;;;;;;4988844;28;20050;-49
2023/12/02 05:03:16;;;;;;;38.95;21.45;;;-1.30;99.90;;;;;;4989912;28;20052;-50
2023/12/02 05:05:42;;;;;;;42.08;21.02;;;-1.40;99.90;;;;;;4975075;28;20056;-52
2023/12/02 05:08:08;;;;;;;42.17;20.83;;;-1.40;99.90;;;;;;4991662;28;20045;-50
2023/12/02 05:10:35;;;;;;;40.55;21.25;;;-1.40;99.90;;;;;;4989893;28;20049;-54
2023/12/02 05:13:00;;;;;;;43.92;20.77;;;-1.30;99.90;;;;;;4972570;28;20057;-54
2023/12/02 05:15:26;;;;;;;38.05;20.70;;;-1.40;99.90;;;;;;4976220;28;20076;-52
2023/12/02 05:17:52;;;;;;;38.75;20.27;;;-1.30;99.90;;;;;;4989053;28;20042;-53
2023/12/02 05:20:19;;;;;;;41.35;21.48;;;-1.40;99.90;;;;;;4991280;28;20133;-53
2023/12/02 05:22:44;;;;;;;38.55;21.13;;;-1.40;99.90;;;;;;4973635;28;20130;-53
2023/12/02 05:25:10;;;;;;;38.42;20.63;;;-1.40;99.90;;;;;;4988486;28;20057;-51
2023/12/02 05:27:36;;;;;;;38.45;19.90;;;-1.40;99.90;;;;;;4991870;28;20416;-53
2023/12/02 05:30:04;;;;;;;40.78;20.55;;;-1.40;99.90;;;;;;4994674;28;20030;-52
2023/12/02 05:32:29;;;;;;;36.88;18.98;;;-1.40;99.90;;;;;;4993657;28;20045;-51
2023/12/02 05:34:55;;;;;;;43.10;21.27;;;-1.40;99.90;;;;;;4988598;28;20640;-52
2023/12/02 05:37:21;;;;;;;37.58;20.95;;;-1.40;99.90;;;;;;4993663;28;20546;-50
2023/12/02 05:39:46;;;;;;;41.83;20.48;;;-1.40;99.90;;;;;;4987586;28;20697;-50
2023/12/02 05:42:12;;;;;;;37.63;19.63;;;-1.40;99.90;;;;;;4989576;28;20092;-49
2023/12/02 05:44:40;;;;;;;40.97;21.25;;;-1.40;99.90;;;;;;4989239;28;20056;-49
2023/12/02 05:47:06;;;;;;;40.40;20.17;;;-1.40;99.90;;;;;;4985520;28;20112;-49
2023/12/02 05:49:32;;;;;;;41.17;21.08;;;-1.40;99.90;;;;;;4986143;28;20041;-50
2023/12/02 05:51:58;;;;;;;42.42;20.80;;;-1.40;99.90;;;;;;4981670;28;20080;-50
2023/12/02 05:54:24;;;;;;;39.17;20.42;;;-1.40;99.90;;;;;;4986992;28;20498;-54
2023/12/02 05:56:52;;;;;;;40.10;20.98;;;-1.40;99.90;;;;;;4983623;28;20045;-53
2023/12/02 05:59:19;;;;;;;41.80;21.20;;;-1.40;99.90;;;;;;4987889;28;20736;-52
2023/12/02 06:01:45;;;;;;;41.38;21.58;;;-1.40;99.90;;;;;;4983868;28;20510;-51
2023/12/02 06:04:11;;;;;;;40.75;20.30;;;-1.40;99.90;;;;;;4972001;28;20053;-50
2023/12/02 06:06:37;;;;;;;39.10;20.83;;;-1.40;99.90;;;;;;4989252;28;20077;-51
2023/12/02 06:09:03;;;;;;;40.92;20.73;;;-1.40;99.90;;;;;;4992421;28;20386;-51
2023/12/02 06:11:29;;;;;;;43.55;21.33;;;-1.40;99.90;;;;;;4991874;28;20049;-50
2023/12/02 06:13:54;;;;;;;42.20;21.38;;;-1.40;99.90;;;;;;4984713;28;20042;-49
2023/12/02 06:16:20;;;;;;;39.08;20.95;;;-1.40;99.90;;;;;;4985192;28;20085;-50
2023/12/02 06:18:46;;;;;;;42.63;20.73;;;-1.40;99.90;;;;;;4994573;28;20394;-49
2023/12/02 06:21:12;;;;;;;37.72;20.02;;;-1.40;99.90;;;;;;4971946;28;20046;-54
2023/12/02 06:23:38;;;;;;;43.45;21.30;;;-1.40;99.90;;;;;;4995060;28;20406;-54
2023/12/02 06:26:05;;;;;;;39.92;20.50;;;-1.40;99.90;;;;;;4989609;28;20577;-49
2023/12/02 06:28:30;;;;;;;37.53;20.05;;;-1.40;99.90;;;;;;4975838;28;20158;-50
2023/12/02 06:30:57;;;;;;;39.20;20.35;;;-1.40;99.90;;;;;;4979544;28;20038;-50
2023/12/02 06:33:23;;;;;;;41.08;21.15;;;-1.40;99.90;;;;;;4971924;28;20046;-50
2023/12/02 06:35:49;;;;;;;41.08;21.50;;;-1.40;99.90;;;;;;4990582;28;20042;-52
2023/12/02 06:38:14;;;;;;;43.20;22.02;;;-1.40;99.90;;;;;;4989014;28;20045;-49
2023/12/02 06:40:40;;;;;;;41.15;21.08;;;-1.40;99.90;;;;;;4989390;28;20502;-48
2023/12/02 06:43:06;;;;;;;38.75;20.15;;;-1.40;99.90;;;;;;4989059;28;20053;-48
2023/12/02 06:45:34;;;;;;;47.47;21.63;;;-1.40;99.90;;;;;;4991985;28;20132;-50
2023/12/02 06:47:59;;;;;;;43.65;21.92;;;-1.40;99.90;;;;;;4988380;28;20049;-51
2023/12/02 06:50:25;;;;;;;42.63;21.10;;;-1.40;99.90;;;;;;4992226;28;20046;-49
2023/12/02 06:52:51;;;;;;;39.25;21.48;;;-1.40;99.90;;;;;;5000500;28;20073;-49
2023/12/02 06:55:17;;;;;;;42.10;21.58;;;-1.40;99.90;;;;;;5000064;28;21016;-48
2023/12/02 06:57:42;;;;;;;42.20;22.25;;;-1.40;99.90;;;;;;4998594;28;20088;-47
2023/12/02 07:00:10;;;;;;;46.58;22.88;;;-1.40;99.90;;;;;;4998472;28;20072;-48
2023/12/02 07:02:36;;;;;;;41.40;22.10;;;-1.40;99.90;;;;;;4993483;28;20056;-48
2023/12/02 07:05:02;;;;;;;42.90;21.77;;;-1.40;99.90;;;;;;4994899;28;20041;-48
2023/12/02 07:07:28;;;;;;;42.65;21.67;;;-1.40;99.90;;;;;;4994647;28;20042;-48
2023/12/02 07:09:53;;;;;;;42.45;21.40;;;-1.40;99.90;;;;;;4993968;28;20038;-51
2023/12/02 07:12:19;;;;;;;42.85;21.23;;;-1.40;99.90;;;;;;4985797;28;20256;-51
2023/12/02 07:14:45;;;;;;;40.03;21.63;;;-1.40;99.90;;;;;;4991263;28;20038;-51
2023/12/02 07:17:11;;;;;;;43.35;20.73;;;-1.40;99.90;;;;;;4984917;28;20057;-50
2023/12/02 07:19:36;;;;;;;38.97;20.38;;;-1.40;99.90;;;;;;4956657;28;20383;-50
2023/12/02 07:22:02;;;;;;;43.33;20.55;;;-1.40;99.90;;;;;;4985944;28;20045;-53
2023/12/02 07:24:28;;;;;;;42.58;21.45;;;-1.40;99.90;;;;;;4990317;28;20723;-48
2023/12/02 07:26:54;;;;;;;42.00;21.50;;;-1.40;99.90;;;;;;4993961;28;20054;-49
2023/12/02 07:29:19;;;;;;;41.90;21.33;;;-1.40;99.90;;;;;;4990436;28;20046;-48
2023/12/02 07:31:45;;;;;;;40.95;21.13;;;-1.40;99.90;;;;;;4986850;28;20497;-48
2023/12/02 07:34:11;;;;;;;42.65;21.45;;;-1.40;99.90;;;;;;4986852;28;20041;-49
2023/12/02 07:36:37;;;;;;;39.08;20.73;;;-1.50;99.90;;;;;;4990677;28;20042;-49
2023/12/02 07:39:03;;;;;;;49.88;22.13;;;-1.40;99.90;;;;;;4997236;28;20126;-48
2023/12/02 07:41:28;;;;;;;39.03;21.17;;;-1.40;99.90;;;;;;5005497;28;20115;-49
2023/12/02 07:43:54;;;;;;;40.10;20.98;;;-1.50;99.90;;;;;;5002024;28;20796;-49
2023/12/02 07:46:19;;;;;;;38.92;20.38;;;-1.50;99.90;;;;;;4996236;28;20069;-51
2023/12/02 07:48:45;;;;;;;40.13;21.08;;;-1.40;99.90;;;;;;5001634;28;20091;-48
2023/12/02 07:51:11;;;;;;;41.20;20.60;;;-1.50;99.90;;;;;;4992734;28;20538;-49
2023/12/02 07:53:37;;;;;;;41.25;21.60;;;-1.40;99.90;;;;;;4964502;28;20081;-50
2023/12/02 07:56:03;;;;;;;43.85;21.55;;;-1.50;99.90;;;;;;4952321;28;20521;-51
2023/12/02 07:58:29;;;;;;;43.15;22.40;;;-1.50;99.90;;;;;;4989589;28;20050;-50
2023/12/02 08:00:55;;;;;;;43.85;21.58;;;-1.50;99.90;;;;;;4989386;28;20045;-50
2023/12/02 08:03:20;;;;;;;41.75;21.23;;;-1.50;99.90;;;;;;4989203;28;20049;-49
2023/12/02 08:05:47;;;;;;;38.83;20.85;;;-1.50;99.90;;;;;;4998966;28;20042;-47
2023/12/02 08:08:12;;;;;;;38.53;20.13;;;-1.50;99.90;;;;;;4995030;28;20485;-49
2023/12/02 08:10:38;;;;;;;41.08;20.98;;;-1.50;99.90;;;;;;4997349;28;20034;-57
2023/12/02 08:13:04;;;;;;;41.38;21.20;;;-1.50;99.90;;;;;;4999326;28;20058;-56
2023/12/02 08:15:29;;;;;;;42.85;21.52;;;-1.50;99.90;;;;;;4994319;28;20046;-53
2023/12/02 08:17:55;;;;;;;38.13;19.95;;;-1.40;99.90;;;;;;4995660;28;20525;-56
2023/12/02 08:20:21;;;;;;;41.63;21.77;;;-1.40;99.90;;;;;;4992614;28;20099;-57
2023/12/02 08:22:47;;;;;;;38.65;21.08;;;-1.40;99.90;;;;;;4994410;28;20046;-55
2023/12/02 08:25:12;;;;;;;42.15;20.85;;;-1.40;99.90;;;;;;4991264;28;20467;-54
2023/12/02 08:27:38;;;;;;;42.63;21.67;;;-1.40;99.90;;;;;;4992758;28;20099;-54
2023/12/02 08:30:05;;;;;;;43.60;21.70;;;-1.30;99.90;;;;;;4992483;28;20113;-57
2023/12/02 08:32:31;;;;;;;42.53;20.85;;;-1.30;99.90;;;;;;4998711;28;20554;-54
2023/12/02 08:34:57;;;;;;;47.92;21.42;;;-1.30;99.90;;;;;;5004441;28;20050;-57
2023/12/02 08:37:23;;;;;;;40.45;20.85;;;-1.30;99.90;;;;;;5000736;28;20393;-58
2023/12/02 08:39:48;;;;;;;42.47;20.65;;;-1.30;99.90;;;;;;5006176;28;20042;-58
2023/12/02 08:42:14;;;;;;;43.63;22.25;;;-1.20;99.90;;;;;;4988956;28;20041;-57
2023/12/02 08:44:40;;;;;;;43.55;21.58;;;-1.20;99.90;;;;;;4986304;28;20061;-56
2023/12/02 08:47:06;;;;;;;40.33;20.58;;;-1.20;99.90;;;;;;5002987;28;20097;-57
2023/12/02 08:49:32;;;;;;;41.35;20.88;;;-1.10;99.90;;;;;;5001266;28;20034;-56
2023/12/02 08:51:58;;;;;;;41.95;20.48;;;-1.10;99.90;;;;;;4996993;28;20053;-58
2023/12/02 08:54:24;;;;;;;47.97;21.83;;;-0.90;99.90;;;;;;4989112;28;20045;-56
2023/12/02 08:56:49;;;;;;;43.55;22.08;;;-1.00;99.90;;;;;;5000902;28;20121;-54
2023/12/02 08:59:16;;;;;;;46.72;22.60;;;-1.00;99.90;;;;;;5000522;28;20487;-57
2023/12/02 09:01:42;;;;;;;44.95;22.77;;;-1.00;99.90;;;;;;4998996;28;20149;-57
2023/12/02 09:04:08;;;;;;;41.88;21.38;;;-0.90;99.90;;;;;;4982209;28;20601;-54
2023/12/02 09:06:33;;;;;;;45.35;21.75;;;-0.90;99.90;;;;;;4996595;28;20081;-54
2023/12/02 09:08:59;;;;;;;44.08;21.05;;;-0.80;99.90;;;;;;4977513;28;20364;-57
2023/12/02 09:11:25;;;;;;;42.22;21.60;;;-0.80;99.90;;;;;;4994353;28;20045;-55
2023/12/02 09:13:51;;;;;;;41.92;21.13;;;-0.80;99.90;;;;;;4981335;28;20054;-53
2023/12/02 09:16:28;;;;;;;46.60;22.35;;;-0.70;99.90;;;;;;4991805;28;20454;-56
2023/12/02 09:18:54;;;;;;;44.58;21.23;;;-0.70;99.90;;;;;;4993636;28;20045;-57
2023/12/02 09:21:20;;;;;;;46.10;21.88;;;-0.70;99.90;;;;;;4993187;28;20034;-54
2023/12/02 09:23:47;;;;;;;42.70;21.45;;;-0.60;99.90;;;;;;4990747;28;20590;-56
2023/12/02 09:26:41;;;;;;;44.13;21.73;;;-0.60;99.90;;;;;;4994737;28;20046;-58
2023/12/02 09:29:08;;;;;;;44.88;21.83;;;-0.60;99.90;;;;;;5000316;28;20042;-56
2023/12/02 09:31:34;;;;;;;40.80;21.77;;;-0.50;99.90;;;;;;4996356;28;20042;-57
2023/12/02 09:34:05;;;;;;;45.15;21.10;;;-0.50;99.90;;;;;;4998104;28;20103;-57
2023/12/02 09:36:41;;;;;;;43.85;21.88;;;-0.40;99.90;;;;;;4985410;28;20058;-56
2023/12/02 09:39:08;;;;;;;43.13;21.52;;;-0.40;99.90;;;;;;4994872;28;20124;-57
2023/12/02 09:41:50;;;;;;;46.13;22.15;;;-0.30;99.90;;;;;;4995656;28;20508;-52
2023/12/02 09:44:37;;;;;;;45.63;22.90;;;-0.30;99.90;;;;;;4997025;28;20525;-55
2023/12/02 09:47:20;;;;;;;41.85;21.52;;;-0.20;99.90;;;;;;4997258;28;20298;-56
2023/12/02 09:50:04;;;;;;;44.92;21.33;;;-0.20;99.90;;;;;;4997630;28;20362;-55
2023/12/02 09:53:05;;;;;;;42.45;21.02;;;-0.20;99.90;;;;;;4991316;28;20048;-57
2023/12/02 09:55:43;;;;;;;40.10;20.88;;;-0.10;99.90;;;;;;4977392;28;20880;-57
2023/12/02 09:58:27;;;;;;;40.83;20.45;;;-0.10;99.90;;;;;;4975342;28;20054;-56
2023/12/02 10:00:58;;;;;;;42.65;22.17;;;0.00;99.90;;;;;;4991556;28;20041;-55
2023/12/02 10:03:48;;;;;;;39.58;21.10;;;0.00;99.90;;;;;;4991135;28;20057;-56
2023/12/02 10:06:42;;;;;;;44.67;21.23;;;0.10;99.90;;;;;;4984860;28;20675;-55
2023/12/02 10:09:35;;;;;;;42.72;21.50;;;0.20;99.90;;;;;;4993078;28;20052;-57
2023/12/02 10:12:01;;;;;;;;;;;0.20;99.90;;;;;;4992299;28;20040;-57
2023/12/02 10:14:32;;;;;;;37.45;19.65;;;0.30;99.90;;;;;;4961382;28;19917;-56
2023/12/02 10:16:58;;;;;;;41.38;20.50;;;0.40;99.90;;;;;;4977365;28;20045;-56
2023/12/02 10:19:24;;;;;;;41.20;20.85;;;0.40;99.90;;;;;;4987024;28;20037;-56
2023/12/02 10:21:53;;;;;;;38.03;20.45;;;0.50;99.90;;;;;;4983348;28;22200;-55
2023/12/02 10:24:32;;;;;;;39.88;20.75;;;0.60;99.90;;;;;;4987676;28;20046;-57
2023/12/02 10:27:03;;;;;;;37.50;20.33;;;0.60;99.90;;;;;;4988734;28;20046;-56
2023/12/02 10:29:57;;;;;;;39.88;21.15;;;0.70;99.90;;;;;;4988706;28;20038;-54
2023/12/02 10:32:41;;;;;;;;;;;0.70;99.90;;;;;;4988850;28;20049;-56
2023/12/02 10:35:28;;;;;;;39.47;21.25;;;0.70;99.90;;;;;;4989821;28;19940;-57
2023/12/02 10:38:21;;;;;;;32.88;18.35;;;0.80;99.90;;;;;;4979322;28;20050;-57
2023/12/02 10:40:55;;;;;;;36.83;18.80;;;0.80;99.90;;;;;;4990721;28;20042;-56
2023/12/02 10:43:42;;;;;;;37.33;19.55;;;0.90;99.90;;;;;;4975345;28;20042;-59
2023/12/02 10:46:10;;;;;;;38.92;19.55;;;1.10;99.90;;;;;;4994730;28;20045;-59
2023/12/02 10:48:37;;;;;;;35.72;18.83;;;1.30;99.90;;;;;;4976079;28;20050;-56
2023/12/02 10:51:04;;;;;;;43.28;20.05;;;1.60;99.90;;;;;;4994507;28;20037;-59
2023/12/02 10:53:32;;;;;;;34.58;17.92;;;1.70;99.90;;;;;;4995274;28;20042;-59
2023/12/02 10:56:05;;;;;;;33.30;18.42;;;1.90;99.90;;;;;;4997873;28;20076;-60
2023/12/02 10:58:32;;;;;;;29.95;17.25;;;2.00;99.90;;;;;;4999550;28;20049;-58
2023/12/02 11:01:08;;;;;;;30.48;16.83;;;2.10;99.90;;;;;;4998783;28;20053;-58
2023/12/02 11:03:46;;;;;;;31.73;16.40;;;2.20;99.90;;;;;;4997561;28;20048;-56
2023/12/02 11:06:35;;;;;;;31.52;16.35;;;2.20;99.90;;;;;;4978079;28;20081;-58
2023/12/02 11:09:14;;;;;;;32.47;16.02;;;2.20;99.90;;;;;;4989000;28;20045;-57
2023/12/02 11:11:46;;;;;;;27.67;15.98;;;2.20;99.90;;;;;;4981515;28;20118;-59
2023/12/02 11:14:20;;;;;;;26.55;15.88;;;2.20;99.90;;;;;;4996074;28;20157;-59
2023/12/02 11:17:06;;;;;;;28.50;15.75;;;2.20;99.90;;;;;;4996244;28;20046;-58
2023/12/02 11:19:56;;;;;;;31.05;15.13;;;2.20;99.90;;;;;;4994666;28;20049;-59
2023/12/02 11:22:54;;;;;;;28.95;15.48;;;2.30;99.90;;;;;;4994568;28;20530;-59
2023/12/02 11:25:35;;;;;;;25.20;14.70;;;2.30;99.90;;;;;;4986005;28;20052;-57
2023/12/02 11:28:33;;;;;;;26.38;15.27;;;2.30;99.90;;;;;;4987590;28;20442;-55
2023/12/02 11:31:25;;;;;;;23.90;14.70;;;2.30;99.90;;;;;;5005019;28;20063;-55
2023/12/02 11:34:21;;;;;;;23.42;13.75;;;2.30;99.90;;;;;;5006533;28;20084;-59
2023/12/02 11:37:24;;;;;;;28.50;14.75;;;2.30;99.90;;;;;;5004412;28;20107;-53
2023/12/02 11:40:03;;;;;;;24.02;14.05;;;2.30;99.90;;;;;;5003247;28;20045;-54
2023/12/02 11:42:36;;;;;;;26.67;15.02;;;2.30;99.90;;;;;;4999000;28;20050;-55
2023/12/02 11:45:08;;;;;;;27.45;14.30;;;2.30;99.90;;;;;;5002093;28;20046;-59
2023/12/02 11:47:50;;;;;;;25.50;14.25;;;2.30;99.90;;;;;;4972398;28;20108;-58
2023/12/02 11:50:43;;;;;;;26.10;15.13;;;2.30;99.90;;;;;;4992606;28;20038;-59
2023/12/02 11:53:28;;;;;;;24.65;14.50;;;2.30;99.90;;;;;;4985176;28;20058;-59
2023/12/02 11:56:16;;;;;;;25.60;13.93;;;2.30;99.90;;;;;;4988458;28;20096;-55
2023/12/02 11:58:55;;;;;;;23.50;14.13;;;2.20;99.90;;;;;;4989763;28;20125;-58
2023/12/02 12:01:29;;;;;;;25.00;14.38;;;2.30;99.90;;;;;;4986737;28;20930;-57
2023/12/02 12:04:32;;;;;;;24.17;13.98;;;2.30;99.90;;;;;;4971906;28;20507;-57
2023/12/02 12:07:15;;;;;;;23.13;13.77;;;2.30;99.90;;;;;;4968732;28;20136;-57
2023/12/02 12:10:07;;;;;;;24.90;14.38;;;2.30;99.90;;;;;;4981756;28;20069;-56
2023/12/02 12:12:38;;;;;;;22.23;13.20;;;2.30;99.90;;;;;;4986535;28;20057;-56
2023/12/02 12:15:04;;;;;;;22.42;13.05;;;2.30;99.90;;;;;;4975978;28;20180;-55
2023/12/02 12:17:30;;;;;;;22.20;13.00;;;2.40;99.90;;;;;;4985653;28;20559;-57
2023/12/02 12:19:59;;;;;;;21.88;12.50;;;2.40;99.90;;;;;;4979321;28;20966;-56
2023/12/02 12:22:27;;;;;;;20.48;11.98;;;2.40;99.90;;;;;;4985434;28;20135;-59
2023/12/02 12:24:53;;;;;;;18.67;11.57;;;2.40;99.90;;;;;;4987875;28;20054;-60
2023/12/02 12:27:19;;;;;;;19.98;11.73;;;2.40;99.90;;;;;;4990751;28;20050;-59
2023/12/02 12:29:53;;;;;;;19.75;12.15;;;2.40;99.90;;;;;;4991696;28;20041;-59
2023/12/02 12:32:20;;;;;;;19.27;12.10;;;2.50;99.90;;;;;;4993424;28;20040;-59
2023/12/02 12:34:46;;;;;;;17.23;11.35;;;2.50;99.90;;;;;;4995977;28;20034;-59
2023/12/02 12:37:16;;;;;;;21.02;12.38;;;2.50;99.90;;;;;;4989200;28;20447;-59
2023/12/02 12:39:44;;;;;;;21.33;12.68;;;2.50;99.90;;;;;;4994556;28;20065;-59